Pagina principale
METAR-TAF:

METAR-TAF

Aeroporti :

Gioia del Colle, Italia

Aeroporto di Gioia del Colle

latitudine: 40-46N, longitudine: 016-56E, altezza: 345 m

Osservazione

Il bollettino è stato emesso 57 minuti fa, alle 14:55 UTC
Vento 3 kt da nord-ovest
Temperature 13°C
Umidità 58%
Pressione 1011 hPa
Visibilità 10 km o più
Nubi sparse ad un'altezza di 4000 ft

METAR: LIBV 191455Z 32003KT 9999 SCT040 13/05 Q1011 RMK BKN SCT170 VIS MIN 9999 WIND THR32 33002KT WIND THR14 32003KT BLU

Ora: 16:52 (15:52 UTC)

Previsione

Il bollettino è stato emesso 1 ora e 52 minuti fa, alle 14:00 UTC
Previsione valida dal 19 alle 15 UTC al 19 alle 24 UTC
Vento 10 kt da nord/nord-ovest
Visibilità 10 km o più
Nubi sparse ad un'altezza di 4000 ft

TAF: LIBV 191400Z 1915/1924 33010KT 9999 SCT040

Osservazioni e previsioni meteorologiche di più di 4000 aeroporti (messaggi METAR e TAF).

Le stazioni disponibili sono rappresentate dai dischi gialli e rossi sulla carta.

Puntare il mouse per vedere il nome della stazione.

Clicca sopra per visualizzare le osservazioni e previsioni meteorologiche.

Per cambiare la mappa : fare clic sui pulsanti verdi con una croce nera per ingrandire, il pulsante verde con un trattino per diminuire, o sulla freccia verde per le mappe adiacenti.


METAR-TAF: